createdAt,value
2023-03-22T00:01:50.125Z,537.00
2023-03-22T00:05:50.156Z,543.00
2023-03-22T00:09:50.160Z,540.00
2023-03-22T00:13:50.169Z,533.00
2023-03-22T00:17:50.165Z,530.00
2023-03-22T00:21:50.166Z,530.00
2023-03-22T00:25:50.177Z,534.00
2023-03-22T00:29:50.218Z,533.00
2023-03-22T00:33:50.209Z,535.00
2023-03-22T00:37:50.251Z,538.00
2023-03-22T00:41:50.282Z,537.00
2023-03-22T00:45:50.269Z,536.00
2023-03-22T00:49:50.293Z,535.00
2023-03-22T00:53:50.313Z,532.00
2023-03-22T00:57:50.321Z,532.00
2023-03-22T01:01:50.335Z,532.00
2023-03-22T01:05:50.352Z,529.00
2023-03-22T01:09:50.363Z,535.00
2023-03-22T01:13:50.396Z,533.00
2023-03-22T01:17:50.431Z,537.00
2023-03-22T01:21:50.434Z,540.00
2023-03-22T01:25:50.481Z,535.00
2023-03-22T01:29:50.578Z,532.00
2023-03-22T01:33:50.645Z,528.00
2023-03-22T01:37:50.709Z,524.00
2023-03-22T01:41:50.838Z,527.00
2023-03-22T01:45:50.936Z,527.00
2023-03-22T01:49:50.961Z,518.00
2023-03-22T01:53:51.075Z,513.00
2023-03-22T01:57:51.199Z,510.00
2023-03-22T02:01:51.361Z,513.00
2023-03-22T02:05:51.388Z,501.00
2023-03-22T02:09:51.532Z,500.00
2023-03-22T02:13:51.706Z,504.00
2023-03-22T02:17:51.812Z,501.00
2023-03-22T02:21:51.937Z,505.00
2023-03-22T02:25:52.138Z,510.00
2023-03-22T02:29:52.207Z,500.00
2023-03-22T02:33:52.391Z,506.00
2023-03-22T02:37:52.531Z,500.00
2023-03-22T02:41:52.764Z,505.00
2023-03-22T02:45:52.939Z,509.00
2023-03-22T02:49:53.098Z,513.00
2023-03-22T02:53:53.266Z,518.00
2023-03-22T02:57:53.446Z,520.00
2023-03-22T03:01:53.669Z,518.00
2023-03-22T03:05:53.808Z,517.00
2023-03-22T03:09:54.039Z,505.00
2023-03-22T03:13:54.198Z,505.00
2023-03-22T03:17:54.412Z,507.00
2023-03-22T03:21:54.596Z,515.00
2023-03-22T03:25:54.868Z,523.00
2023-03-22T03:29:55.028Z,529.00
2023-03-22T03:33:55.220Z,527.00
2023-03-22T03:37:55.212Z,533.00
2023-03-22T03:41:55.179Z,531.00
2023-03-22T03:45:55.136Z,540.00
2023-03-22T03:49:55.099Z,538.00
2023-03-22T03:53:55.079Z,541.00
2023-03-22T03:57:55.040Z,538.00
2023-03-22T04:01:55.013Z,532.00
2023-03-22T04:05:54.950Z,540.00
2023-03-22T04:09:54.958Z,542.00
2023-03-22T04:13:54.870Z,537.00
2023-03-22T04:17:55.120Z,540.00
2023-03-22T04:21:55.206Z,540.00
2023-03-22T04:25:55.198Z,541.00
2023-03-22T04:29:55.155Z,542.00
2023-03-22T04:33:55.102Z,541.00
2023-03-22T04:37:55.052Z,538.00
2023-03-22T04:41:55.086Z,541.00
2023-03-22T04:45:55.242Z,535.00
2023-03-22T04:49:54.978Z,533.00
2023-03-22T04:53:54.927Z,539.00
2023-03-22T04:57:54.946Z,539.00
2023-03-22T05:01:54.896Z,534.00
2023-03-22T05:05:54.827Z,540.00
2023-03-22T05:09:54.822Z,535.00
2023-03-22T05:13:54.857Z,535.00
2023-03-22T05:17:54.696Z,539.00
2023-03-22T05:21:54.704Z,535.00
2023-03-22T05:25:54.673Z,536.00
2023-03-22T05:29:54.613Z,535.00
2023-03-22T05:33:54.607Z,538.00
2023-03-22T05:37:54.534Z,535.00
2023-03-22T05:41:54.527Z,544.00
2023-03-22T05:45:54.513Z,538.00
2023-03-22T05:49:54.440Z,540.00
2023-03-22T05:53:54.416Z,537.00
2023-03-22T05:57:54.410Z,540.00
2023-03-22T06:01:54.423Z,535.00
2023-03-22T06:05:54.334Z,537.00
2023-03-22T06:09:54.274Z,544.00
2023-03-22T06:13:54.242Z,535.00
2023-03-22T06:17:54.211Z,539.00
2023-03-22T06:21:54.203Z,539.00
2023-03-22T06:25:54.200Z,543.00
2023-03-22T06:29:54.197Z,537.00
2023-03-22T06:33:55.909Z,540.00
2023-03-22T06:37:54.437Z,534.00
2023-03-22T06:41:54.581Z,541.00
2023-03-22T06:45:54.986Z,549.00
2023-03-22T06:49:54.964Z,554.00
2023-03-22T06:53:54.970Z,548.00
2023-03-22T06:57:54.464Z,553.00
2023-03-22T07:01:54.408Z,555.00
2023-03-22T07:05:54.369Z,560.00
2023-03-22T07:09:54.342Z,564.00
2023-03-22T07:13:54.461Z,562.00
2023-03-22T07:17:54.255Z,565.00
2023-03-22T07:21:54.311Z,564.00
2023-03-22T07:25:54.690Z,564.00
2023-03-22T07:29:54.614Z,567.00
2023-03-22T07:33:54.979Z,576.00
2023-03-22T07:37:54.840Z,573.00
2023-03-22T07:41:54.944Z,564.00
2023-03-22T07:45:55.469Z,576.00
2023-03-22T07:49:55.472Z,569.00
2023-03-22T07:53:55.153Z,576.00
2023-03-22T07:57:55.167Z,603.00
2023-03-22T08:01:55.184Z,646.00
2023-03-22T08:05:55.481Z,700.00
2023-03-22T08:09:55.780Z,738.00
2023-03-22T08:13:55.705Z,768.00
2023-03-22T08:17:55.983Z,834.00
2023-03-22T08:21:55.834Z,864.00
2023-03-22T08:25:55.994Z,943.00
2023-03-22T08:29:55.914Z,935.00
2023-03-22T08:33:56.473Z,1209.00
2023-03-22T08:37:56.002Z,1080.00
2023-03-22T08:41:55.978Z,1091.00
2023-03-22T08:45:56.080Z,1188.00
2023-03-22T08:49:56.474Z,1538.00
2023-03-22T08:53:57.025Z,1648.00
2023-03-22T08:57:57.023Z,1784.00
2023-03-22T09:01:56.887Z,1927.00
2023-03-22T09:05:56.843Z,2019.00
2023-03-22T09:09:56.838Z,2093.00
2023-03-22T09:13:57.003Z,2172.00
2023-03-22T09:17:56.930Z,2229.00
2023-03-22T09:21:57.082Z,2312.00
2023-03-22T09:25:57.242Z,2328.00
2023-03-22T09:29:57.516Z,2379.00
2023-03-22T09:33:57.402Z,2403.00
2023-03-22T09:37:57.530Z,2380.00
2023-03-22T09:41:57.301Z,2269.00
2023-03-22T09:45:57.599Z,1945.00
2023-03-22T09:49:57.534Z,1900.00
2023-03-22T09:53:57.664Z,1839.00
2023-03-22T09:57:57.175Z,1824.00
2023-03-22T10:01:57.469Z,1781.00
2023-03-22T10:05:57.537Z,1738.00
2023-03-22T10:09:57.068Z,1836.00
2023-03-22T10:13:57.004Z,1787.00
2023-03-22T10:17:57.650Z,1746.00
2023-03-22T10:21:56.952Z,1706.00
2023-03-22T10:25:56.931Z,1766.00
2023-03-22T10:29:57.040Z,1821.00
2023-03-22T10:33:56.874Z,1832.00
2023-03-22T10:37:57.124Z,1838.00
2023-03-22T10:41:58.159Z,1874.00
2023-03-22T10:45:57.544Z,1782.00
2023-03-22T10:49:57.667Z,1718.00
2023-03-22T10:53:57.588Z,1741.00
2023-03-22T10:57:58.077Z,1746.00
2023-03-22T11:01:58.043Z,1736.00
2023-03-22T11:05:57.878Z,1832.00
2023-03-22T11:09:57.912Z,1802.00
2023-03-22T11:13:57.907Z,1792.00
2023-03-22T11:17:57.927Z,1753.00
2023-03-22T11:21:58.028Z,1779.00
2023-03-22T11:25:57.917Z,1716.00
2023-03-22T11:29:57.912Z,1641.00
2023-03-22T11:33:57.962Z,1655.00
2023-03-22T11:37:58.071Z,1724.00
2023-03-22T11:41:58.068Z,1723.00
2023-03-22T11:45:58.122Z,1634.00
2023-03-22T11:49:58.561Z,1669.00
2023-03-22T11:53:58.249Z,1695.00
2023-03-22T11:57:58.497Z,1707.00
2023-03-22T12:01:58.426Z,1708.00
2023-03-22T12:05:58.454Z,1724.00
2023-03-22T12:09:59.132Z,1709.00
2023-03-22T12:13:58.340Z,1758.00
2023-03-22T12:17:58.337Z,1746.00
2023-03-22T12:21:58.357Z,1696.00
2023-03-22T12:25:58.572Z,1659.00
2023-03-22T12:29:59.099Z,1671.00
2023-03-22T12:33:59.121Z,1700.00
2023-03-22T12:37:59.015Z,1684.00
2023-03-22T12:41:58.974Z,1669.00
2023-03-22T12:45:58.933Z,1609.00
2023-03-22T12:49:58.918Z,1499.00
2023-03-22T12:53:58.858Z,1483.00
2023-03-22T12:57:58.816Z,1373.00
2023-03-22T13:01:58.768Z,1318.00
2023-03-22T13:05:58.719Z,1278.00
2023-03-22T13:09:58.721Z,1220.00
2023-03-22T13:13:58.653Z,1175.00
2023-03-22T13:17:58.684Z,1132.00
2023-03-22T13:21:58.575Z,1086.00
2023-03-22T13:25:58.562Z,1004.00
2023-03-22T13:29:58.530Z,1033.00
2023-03-22T13:33:58.505Z,975.00
2023-03-22T13:37:58.455Z,930.00
2023-03-22T13:41:58.415Z,909.00
2023-03-22T13:45:58.433Z,950.00
2023-03-22T13:49:58.373Z,661.00
2023-03-22T13:53:58.376Z,691.00
2023-03-22T13:57:58.291Z,706.00
2023-03-22T14:01:58.255Z,655.00
2023-03-22T14:05:58.202Z,642.00
2023-03-22T14:09:58.153Z,716.00
2023-03-22T14:13:58.112Z,653.00
2023-03-22T14:17:58.160Z,640.00
2023-03-22T14:46:58.196Z,500.00
2023-03-22T14:50:58.188Z,509.00
2023-03-22T14:54:58.155Z,535.00
2023-03-22T14:58:58.089Z,557.00
2023-03-22T15:02:58.057Z,567.00
2023-03-22T15:06:58.011Z,571.00
2023-03-22T15:10:57.967Z,574.00
2023-03-22T15:14:57.960Z,574.00
2023-03-22T15:18:57.916Z,581.00
2023-03-22T15:22:57.881Z,584.00
2023-03-22T15:26:57.820Z,586.00
2023-03-22T15:30:57.792Z,589.00
2023-03-22T15:34:57.765Z,594.00
2023-03-22T15:38:57.745Z,599.00
2023-03-22T15:42:57.697Z,600.00
2023-03-22T15:46:57.683Z,604.00
2023-03-22T15:50:57.651Z,608.00
2023-03-22T15:54:57.599Z,609.00
2023-03-22T15:58:57.566Z,614.00
2023-03-22T16:02:57.545Z,613.00
2023-03-22T16:06:57.671Z,618.00
2023-03-22T16:10:57.805Z,614.00
2023-03-22T16:14:57.903Z,617.00
2023-03-22T16:18:58.026Z,618.00
2023-03-22T16:22:58.163Z,621.00
2023-03-22T16:26:58.282Z,612.00
2023-03-22T16:30:58.439Z,616.00
2023-03-22T16:34:58.554Z,616.00
2023-03-22T16:38:58.681Z,621.00
2023-03-22T16:42:58.795Z,612.00
2023-03-22T16:46:59.022Z,615.00
2023-03-22T16:50:59.093Z,618.00
2023-03-22T16:54:59.265Z,616.00
2023-03-22T16:58:59.424Z,616.00
2023-03-22T17:02:59.590Z,614.00
2023-03-22T17:06:59.809Z,618.00
2023-03-22T17:11:00.024Z,619.00
2023-03-22T17:15:00.194Z,615.00
2023-03-22T17:19:00.344Z,615.00
2023-03-22T17:23:00.532Z,611.00
2023-03-22T17:27:00.747Z,614.00
2023-03-22T17:31:00.966Z,614.00
2023-03-22T17:35:01.132Z,619.00
2023-03-22T17:39:17.956Z,614.00
2023-03-22T17:43:02.332Z,618.00
2023-03-22T17:51:02.243Z,622.00
2023-03-22T17:59:02.179Z,614.00
2023-03-22T18:03:01.194Z,615.00
2023-03-22T18:07:01.120Z,620.00
2023-03-22T18:11:01.104Z,619.00
2023-03-22T18:15:01.062Z,621.00
2023-03-22T18:19:01.014Z,618.00
2023-03-22T18:23:00.967Z,615.00
2023-03-22T18:31:00.938Z,616.00
2023-03-22T18:35:01.308Z,618.00
2023-03-22T18:43:01.768Z,615.00
2023-03-22T18:47:00.845Z,617.00
2023-03-22T18:51:10.818Z,612.00
2023-03-22T18:55:15.303Z,614.00
2023-03-22T18:59:01.658Z,613.00
2023-03-22T19:03:00.736Z,605.00
2023-03-22T19:07:01.047Z,616.00
2023-03-22T19:11:00.525Z,601.00
2023-03-22T19:15:28.489Z,605.00
2023-03-22T19:19:01.500Z,603.00
2023-03-22T19:23:00.464Z,606.00
2023-03-22T19:27:16.144Z,602.00
2023-03-22T19:31:01.398Z,606.00
2023-03-22T19:35:00.387Z,603.00
2023-03-22T19:39:00.348Z,596.00
2023-03-22T19:43:00.309Z,598.00
2023-03-22T19:47:00.785Z,593.00
2023-03-22T19:51:00.254Z,594.00
2023-03-22T19:55:00.171Z,596.00
2023-03-22T19:59:00.160Z,596.00
2023-03-22T20:03:00.130Z,592.00
2023-03-22T20:07:00.098Z,588.00
2023-03-22T20:11:00.031Z,592.00
2023-03-22T20:14:59.998Z,588.00
2023-03-22T20:19:00.051Z,587.00
2023-03-22T20:22:59.948Z,587.00
2023-03-22T20:26:59.887Z,581.00
2023-03-22T20:30:59.848Z,584.00
2023-03-22T20:34:59.842Z,582.00
2023-03-22T20:38:59.795Z,574.00
2023-03-22T20:42:59.744Z,579.00
2023-03-22T20:46:59.738Z,577.00
2023-03-22T20:50:59.679Z,572.00
2023-03-22T20:54:59.666Z,573.00
2023-03-22T20:58:59.584Z,573.00
2023-03-22T21:02:59.556Z,565.00
2023-03-22T21:06:59.491Z,565.00
2023-03-22T21:10:59.528Z,564.00
2023-03-22T21:14:59.467Z,568.00
2023-03-22T21:18:59.446Z,569.00
2023-03-22T21:22:59.400Z,558.00
2023-03-22T21:26:59.383Z,557.00
2023-03-22T21:30:59.411Z,559.00
2023-03-22T21:34:59.394Z,554.00
2023-03-22T21:38:59.389Z,557.00
2023-03-22T21:42:59.338Z,561.00
2023-03-22T21:46:59.381Z,554.00
2023-03-22T21:50:59.329Z,554.00
2023-03-22T21:54:59.314Z,549.00
2023-03-22T21:58:59.328Z,546.00
2023-03-22T22:02:59.362Z,549.00
2023-03-22T22:06:59.376Z,548.00
2023-03-22T22:10:59.440Z,548.00
2023-03-22T22:14:59.402Z,543.00
2023-03-22T22:18:59.383Z,540.00
2023-03-22T22:22:59.426Z,540.00
2023-03-22T22:26:59.395Z,538.00
2023-03-22T22:30:59.396Z,541.00
2023-03-22T22:34:59.412Z,534.00
2023-03-22T22:38:59.424Z,536.00
2023-03-22T22:42:59.453Z,530.00
2023-03-22T22:46:59.477Z,532.00
2023-03-22T22:50:59.456Z,530.00
2023-03-22T22:54:59.457Z,530.00
2023-03-22T22:58:59.542Z,529.00
2023-03-22T23:02:59.539Z,531.00
2023-03-22T23:06:59.519Z,526.00
2023-03-22T23:10:59.560Z,528.00
2023-03-22T23:14:59.590Z,523.00
2023-03-22T23:18:59.589Z,520.00
2023-03-22T23:22:59.644Z,519.00
2023-03-22T23:26:59.684Z,519.00
2023-03-22T23:30:59.722Z,517.00
2023-03-22T23:34:59.741Z,517.00
2023-03-22T23:38:59.850Z,514.00
2023-03-22T23:42:59.899Z,512.00
2023-03-22T23:46:59.920Z,512.00
2023-03-22T23:50:59.919Z,511.00
2023-03-22T23:55:00.000Z,508.00
2023-03-22T23:59:00.027Z,510.00
